»·PEaware :: N172FW KPMD-KSMX

N172FW :: KPMD-KSMX

FLIGHT INFORMATION

Flight Status: Arrived
Operator: Privately registered:
United States
More flights under this callsign
Pilot: Anonymous 29061 (29061)
Aircraft: CESSNA 172 SKYHAWK
(C172)
More flights by this aircraft type
Origin: KPMD Palmdale AF Plant 42
United States
Destination: KSMX Santa Maria Pub/Capt Hancock
United States
More flights between these airports :: More routes between these airports
Route: PMD V12 RZS
File this flight plan on PilotEdge
Remarks:
Altitude:
(Current/Filed)
10,000ft
Speed:
(Current/Filed)
110kts
Departed: 21-Oct-22 05:21 PM
Arrived: 21-Oct-22 06:56 PM
Distance/Time
Traveled:
118nm/1:35
Distance/Time
To Go:
Arrived

Flight Plot

Page will automatically refresh every two minutes.

Flight plan parsing failed; only flown route is shown


Map Options




Map Legend


Flown Route
Filed Route
Departure Airport
Arrival Airport
Navaid (VOR, NDB)
Fix

Horizontal Profiles

Position Reports

Time Latitude Longitude Heading Altitude Ground
Speed
21-Oct-22 17:18 34.639578 -118.081614 348 2546ft 0kts
21-Oct-22 17:19 34.639580 -118.081614 348 2546ft 0kts
21-Oct-22 17:20 34.636554 -118.098604 348 2546ft 150kts
21-Oct-22 17:21 34.634834 -118.081844 348 2546ft 754kts
21-Oct-22 17:22 34.637411 -118.060194 228 2546ft 0kts
21-Oct-22 17:23 34.637411 -118.060194 228 2546ft 0kts
21-Oct-22 17:24 34.637382 -118.060233 228 2546ft 4kts
21-Oct-22 17:25 34.625956 -118.077524 230 2875ft 88kts
21-Oct-22 17:26 34.630359 -118.104614 311 3476ft 95kts
21-Oct-22 17:27 34.648854 -118.128017 313 4077ft 95kts
21-Oct-22 17:28 34.667911 -118.150198 318 4667ft 93kts
21-Oct-22 17:29 34.687362 -118.170736 318 5246ft 92kts
21-Oct-22 17:30 34.707154 -118.191657 318 5752ft 95kts
21-Oct-22 17:31 34.727003 -118.212650 318 6247ft 94kts
21-Oct-22 17:32 34.746572 -118.233352 318 6734ft 92kts
21-Oct-22 17:33 34.765624 -118.253514 318 7219ft 88kts
21-Oct-22 17:34 34.782941 -118.271840 318 7701ft 82kts
21-Oct-22 17:35 34.793932 -118.291644 237 8201ft 69kts
21-Oct-22 17:36 34.775205 -118.286523 145 8336ft 93kts
21-Oct-22 17:37 34.758145 -118.262936 78 8612ft 104kts
21-Oct-22 17:38 34.781900 -118.261192 318 8924ft 107kts
21-Oct-22 17:39 34.798947 -118.290001 263 9207ft 109kts
21-Oct-22 17:40 34.777450 -118.289829 117 9503ft 103kts
21-Oct-22 17:42 34.760569 -118.262869 128 9811ft 99kts
21-Oct-22 17:43 34.742427 -118.235623 128 9938ft 110kts
21-Oct-22 17:44 34.722601 -118.205089 127 9933ft 117kts
21-Oct-22 17:45 34.702487 -118.173726 127 9933ft 118kts
21-Oct-22 17:46 34.682361 -118.142331 127 9933ft 118kts
21-Oct-22 17:47 34.662258 -118.110979 127 9923ft 115kts
21-Oct-22 17:48 34.642851 -118.081377 140 9924ft 110kts
21-Oct-22 17:49 34.625517 -118.099649 267 9947ft 107kts
21-Oct-22 17:50 34.623573 -118.136342 265 9935ft 109kts
21-Oct-22 17:51 34.621405 -118.173121 265 9933ft 109kts
21-Oct-22 17:52 34.619244 -118.209981 265 9932ft 109kts
21-Oct-22 17:53 34.617087 -118.246803 265 9933ft 109kts
21-Oct-22 17:54 34.614937 -118.283543 265 9934ft 109kts
21-Oct-22 17:55 34.612721 -118.321362 265 9932ft 114kts
21-Oct-22 17:56 34.610442 -118.360330 265 9932ft 116kts
21-Oct-22 17:57 34.608141 -118.399601 265 9932ft 116kts
21-Oct-22 17:58 34.605843 -118.438794 265 9932ft 116kts
21-Oct-22 17:59 34.603549 -118.477960 265 9932ft 116kts
21-Oct-22 18:00 34.601245 -118.517250 265 9932ft 116kts
21-Oct-22 18:01 34.598945 -118.556528 265 9932ft 116kts
21-Oct-22 18:02 34.596653 -118.595658 265 9932ft 116kts
21-Oct-22 18:03 34.594352 -118.634929 265 9932ft 116kts
21-Oct-22 18:04 34.592034 -118.674489 265 9924ft 117kts
21-Oct-22 18:04 34.590122 -118.707130 265 9940ft 115kts
21-Oct-22 18:06 34.587475 -118.752255 265 9973ft 116kts
21-Oct-22 18:07 34.585180 -118.791426 265 9972ft 116kts
21-Oct-22 18:08 34.582887 -118.830576 265 9972ft 116kts
21-Oct-22 18:09 34.580580 -118.869931 265 9972ft 116kts
21-Oct-22 18:09 34.578670 -118.902513 265 9972ft 116kts
21-Oct-22 18:10 34.576362 -118.941882 265 9972ft 116kts
21-Oct-22 18:12 34.573686 -118.987538 265 9973ft 116kts
21-Oct-22 18:13 34.571386 -119.026799 265 9972ft 116kts
21-Oct-22 18:13 34.569468 -119.059511 265 9973ft 116kts
21-Oct-22 18:14 34.567169 -119.098724 265 9973ft 116kts
21-Oct-22 18:15 34.564868 -119.137990 265 9972ft 116kts
21-Oct-22 18:16 34.562368 -119.177232 264 9973ft 116kts
21-Oct-22 18:17 34.559424 -119.216456 264 9973ft 116kts
21-Oct-22 18:18 34.555844 -119.255546 263 9973ft 116kts
21-Oct-22 18:19 34.552173 -119.294655 263 9972ft 116kts
21-Oct-22 18:20 34.548497 -119.333740 263 9972ft 116kts
21-Oct-22 18:21 34.544824 -119.372771 263 9972ft 116kts
21-Oct-22 18:22 34.541048 -119.412937 263 9688ft 123kts
21-Oct-22 18:23 34.537254 -119.454462 263 9182ft 123kts
21-Oct-22 18:24 34.533447 -119.495898 263 8679ft 123kts
21-Oct-22 18:25 34.529602 -119.537215 263 8174ft 123kts
21-Oct-22 18:26 34.525914 -119.576684 263 7910ft 111kts
21-Oct-22 18:27 34.522145 -119.616555 263 7404ft 125kts
21-Oct-22 18:28 34.518319 -119.658548 263 6874ft 121kts
21-Oct-22 18:29 34.514653 -119.698695 263 6371ft 119kts
21-Oct-22 18:30 34.510973 -119.738412 263 5961ft 113kts
21-Oct-22 18:31 34.507420 -119.776380 263 5933ft 113kts
21-Oct-22 18:32 34.517384 -119.809633 311 5933ft 112kts
21-Oct-22 18:33 34.536195 -119.839546 302 5933ft 111kts
21-Oct-22 18:34 34.552290 -119.871909 300 5933ft 112kts
21-Oct-22 18:35 34.568340 -119.904371 300 5932ft 112kts
21-Oct-22 18:36 34.584369 -119.936800 300 5933ft 112kts
21-Oct-22 18:37 34.600417 -119.969266 300 5932ft 112kts
21-Oct-22 18:38 34.616407 -120.001628 300 5930ft 112kts
21-Oct-22 18:39 34.632992 -120.035192 300 5386ft 113kts
21-Oct-22 18:40 34.649076 -120.067773 300 4885ft 111kts
21-Oct-22 18:41 34.664724 -120.099474 300 4544ft 101kts
21-Oct-22 18:42 34.678309 -120.126538 301 4534ft 88kts
21-Oct-22 18:43 34.691098 -120.151445 301 4532ft 85kts
21-Oct-22 18:44 34.704445 -120.177415 302 4543ft 100kts
21-Oct-22 18:45 34.719714 -120.207767 299 4532ft 107kts
21-Oct-22 18:46 34.734267 -120.239463 298 4533ft 107kts
21-Oct-22 18:47 34.748793 -120.271371 308 4520ft 109kts
21-Oct-22 18:48 34.770612 -120.300024 312 3958ft 114kts
21-Oct-22 18:49 34.792604 -120.327169 315 3451ft 112kts
21-Oct-22 18:50 34.814952 -120.353452 315 2957ft 111kts
21-Oct-22 18:51 34.836191 -120.378463 315 2927ft 100kts
21-Oct-22 18:52 34.856730 -120.402712 314 2506ft 91kts
21-Oct-22 18:53 34.871494 -120.420326 315 1979ft 71kts
21-Oct-22 18:54 34.886201 -120.437718 318 1015ft 74kts
21-Oct-22 18:55 34.898756 -120.452985 314 264ft 34kts
21-Oct-22 18:56 34.902878 -120.457452 349 264ft 4kts
21-Oct-22 18:57 34.903783 -120.456522 233 264ft 0kts
21-Oct-22 18:58 34.903782 -120.456524 233 264ft 0kts
21-Oct-22 18:59 34.903780 -120.456527 233 264ft 0kts

Navigation Log

Ident Type
Flight plan parsing failed, navigation log unavailable